sensor_id;sensor_type;location;lat;lon;timestamp;P1;durP1;ratioP1;P2;durP2;ratioP2
23117;SDS011;11728;50.624;6.014;2023-02-21T00:02:24;36.33;;;20.73;;
23117;SDS011;11728;50.624;6.014;2023-02-21T00:07:43;35.55;;;19.20;;
23117;SDS011;11728;50.624;6.014;2023-02-21T00:13:02;38.97;;;20.20;;
23117;SDS011;11728;50.624;6.014;2023-02-21T00:18:20;36.72;;;20.25;;
23117;SDS011;11728;50.624;6.014;2023-02-21T00:23:40;33.13;;;19.40;;
23117;SDS011;11728;50.624;6.014;2023-02-21T00:28:59;37.38;;;19.17;;
23117;SDS011;11728;50.624;6.014;2023-02-21T00:34:17;36.30;;;18.75;;
23117;SDS011;11728;50.624;6.014;2023-02-21T00:39:36;37.17;;;19.75;;
23117;SDS011;11728;50.624;6.014;2023-02-21T00:44:55;33.92;;;19.60;;
23117;SDS011;11728;50.624;6.014;2023-02-21T00:55:34;37.05;;;18.55;;
23117;SDS011;11728;50.624;6.014;2023-02-21T01:00:53;36.90;;;19.77;;
23117;SDS011;11728;50.624;6.014;2023-02-21T01:06:12;34.38;;;19.88;;
23117;SDS011;11728;50.624;6.014;2023-02-21T01:11:31;39.53;;;20.20;;
23117;SDS011;11728;50.624;6.014;2023-02-21T01:16:50;35.75;;;19.60;;
23117;SDS011;11728;50.624;6.014;2023-02-21T01:22:09;35.95;;;19.45;;
23117;SDS011;11728;50.624;6.014;2023-02-21T01:27:28;34.30;;;19.67;;
23117;SDS011;11728;50.624;6.014;2023-02-21T01:32:46;35.42;;;19.38;;
23117;SDS011;11728;50.624;6.014;2023-02-21T01:38:05;36.65;;;19.63;;
23117;SDS011;11728;50.624;6.014;2023-02-21T01:43:25;39.65;;;21.42;;
23117;SDS011;11728;50.624;6.014;2023-02-21T01:48:45;32.67;;;18.65;;
23117;SDS011;11728;50.624;6.014;2023-02-21T01:54:06;36.70;;;18.85;;
23117;SDS011;11728;50.624;6.014;2023-02-21T02:04:46;37.78;;;18.33;;
23117;SDS011;11728;50.624;6.014;2023-02-21T02:10:07;35.90;;;19.00;;
23117;SDS011;11728;50.624;6.014;2023-02-21T02:26:34;33.45;;;19.02;;
23117;SDS011;11728;50.624;6.014;2023-02-21T02:43:03;38.55;;;19.58;;
23117;SDS011;11728;50.624;6.014;2023-02-21T02:53:21;35.05;;;18.80;;
23117;SDS011;11728;50.624;6.014;2023-02-21T02:58:25;34.65;;;18.50;;
23117;SDS011;11728;50.624;6.014;2023-02-21T03:03:53;35.88;;;18.58;;
23117;SDS011;11728;50.624;6.014;2023-02-21T03:14:25;34.85;;;18.17;;
23117;SDS011;11728;50.624;6.014;2023-02-21T03:19:32;37.78;;;18.80;;
23117;SDS011;11728;50.624;6.014;2023-02-21T03:24:37;37.95;;;19.35;;
23117;SDS011;11728;50.624;6.014;2023-02-21T03:29:40;37.72;;;20.52;;
23117;SDS011;11728;50.624;6.014;2023-02-21T03:34:41;35.08;;;17.90;;
23117;SDS011;11728;50.624;6.014;2023-02-21T03:39:42;38.88;;;20.05;;
23117;SDS011;11728;50.624;6.014;2023-02-21T03:44:43;39.27;;;19.50;;
23117;SDS011;11728;50.624;6.014;2023-02-21T03:49:43;34.42;;;17.98;;
23117;SDS011;11728;50.624;6.014;2023-02-21T03:54:43;33.10;;;18.52;;
23117;SDS011;11728;50.624;6.014;2023-02-21T03:59:44;36.65;;;17.70;;
23117;SDS011;11728;50.624;6.014;2023-02-21T04:04:44;35.10;;;17.35;;
23117;SDS011;11728;50.624;6.014;2023-02-21T04:09:47;36.30;;;18.60;;
23117;SDS011;11728;50.624;6.014;2023-02-21T04:14:48;38.70;;;18.58;;
23117;SDS011;11728;50.624;6.014;2023-02-21T04:19:49;36.13;;;18.57;;
23117;SDS011;11728;50.624;6.014;2023-02-21T04:24:49;35.45;;;18.20;;
23117;SDS011;11728;50.624;6.014;2023-02-21T04:29:50;30.92;;;18.02;;
23117;SDS011;11728;50.624;6.014;2023-02-21T04:34:50;36.57;;;18.23;;
23117;SDS011;11728;50.624;6.014;2023-02-21T04:39:50;41.47;;;18.57;;
23117;SDS011;11728;50.624;6.014;2023-02-21T04:44:51;38.67;;;17.05;;
23117;SDS011;11728;50.624;6.014;2023-02-21T04:49:51;35.22;;;18.40;;
23117;SDS011;11728;50.624;6.014;2023-02-21T04:54:51;38.07;;;18.57;;
23117;SDS011;11728;50.624;6.014;2023-02-21T04:59:56;43.63;;;20.08;;
23117;SDS011;11728;50.624;6.014;2023-02-21T05:04:57;40.50;;;19.17;;
23117;SDS011;11728;50.624;6.014;2023-02-21T05:09:57;50.13;;;21.07;;
23117;SDS011;11728;50.624;6.014;2023-02-21T05:14:58;39.00;;;18.50;;
23117;SDS011;11728;50.624;6.014;2023-02-21T05:19:58;169.97;;;21.03;;
23117;SDS011;11728;50.624;6.014;2023-02-21T05:24:58;245.00;;;23.85;;
23117;SDS011;11728;50.624;6.014;2023-02-21T05:29:59;43.13;;;16.67;;
23117;SDS011;11728;50.624;6.014;2023-02-21T05:34:59;51.93;;;16.67;;
23117;SDS011;11728;50.624;6.014;2023-02-21T05:40:00;37.47;;;18.17;;
23117;SDS011;11728;50.624;6.014;2023-02-21T05:45:00;37.60;;;19.13;;
23117;SDS011;11728;50.624;6.014;2023-02-21T05:50:01;38.60;;;19.73;;
23117;SDS011;11728;50.624;6.014;2023-02-21T05:55:03;42.13;;;19.25;;
23117;SDS011;11728;50.624;6.014;2023-02-21T06:00:04;78.63;;;21.70;;
23117;SDS011;11728;50.624;6.014;2023-02-21T06:05:05;93.88;;;22.75;;
23117;SDS011;11728;50.624;6.014;2023-02-21T06:10:06;42.47;;;20.63;;
23117;SDS011;11728;50.624;6.014;2023-02-21T06:15:07;43.13;;;20.05;;
23117;SDS011;11728;50.624;6.014;2023-02-21T06:20:09;42.58;;;20.52;;
23117;SDS011;11728;50.624;6.014;2023-02-21T06:25:13;43.47;;;21.15;;
23117;SDS011;11728;50.624;6.014;2023-02-21T06:30:14;40.22;;;19.20;;
23117;SDS011;11728;50.624;6.014;2023-02-21T06:35:14;39.10;;;18.67;;
23117;SDS011;11728;50.624;6.014;2023-02-21T06:40:15;40.53;;;19.23;;
23117;SDS011;11728;50.624;6.014;2023-02-21T06:45:15;35.25;;;16.38;;
23117;SDS011;11728;50.624;6.014;2023-02-21T06:50:16;31.25;;;16.80;;
23117;SDS011;11728;50.624;6.014;2023-02-21T06:55:19;35.08;;;17.13;;
23117;SDS011;11728;50.624;6.014;2023-02-21T07:00:21;33.15;;;15.68;;
23117;SDS011;11728;50.624;6.014;2023-02-21T07:05:21;33.58;;;16.65;;
23117;SDS011;11728;50.624;6.014;2023-02-21T07:10:21;33.17;;;17.52;;
23117;SDS011;11728;50.624;6.014;2023-02-21T07:15:22;32.00;;;16.40;;
23117;SDS011;11728;50.624;6.014;2023-02-21T07:20:22;36.78;;;18.23;;
23117;SDS011;11728;50.624;6.014;2023-02-21T07:25:23;46.33;;;20.92;;
23117;SDS011;11728;50.624;6.014;2023-02-21T07:30:23;45.03;;;19.38;;
23117;SDS011;11728;50.624;6.014;2023-02-21T07:35:24;44.00;;;20.02;;
23117;SDS011;11728;50.624;6.014;2023-02-21T07:40:24;44.20;;;20.95;;
23117;SDS011;11728;50.624;6.014;2023-02-21T07:45:24;43.67;;;17.93;;
23117;SDS011;11728;50.624;6.014;2023-02-21T07:50:25;47.55;;;21.85;;
23117;SDS011;11728;50.624;6.014;2023-02-21T07:55:25;37.50;;;19.50;;
23117;SDS011;11728;50.624;6.014;2023-02-21T08:00:25;40.13;;;20.27;;
23117;SDS011;11728;50.624;6.014;2023-02-21T08:05:26;36.65;;;19.15;;
23117;SDS011;11728;50.624;6.014;2023-02-21T08:10:27;36.90;;;18.55;;
23117;SDS011;11728;50.624;6.014;2023-02-21T08:15:28;34.95;;;18.95;;
23117;SDS011;11728;50.624;6.014;2023-02-21T08:20:28;34.23;;;18.23;;
23117;SDS011;11728;50.624;6.014;2023-02-21T08:25:29;34.63;;;18.33;;
23117;SDS011;11728;50.624;6.014;2023-02-21T08:30:29;29.95;;;17.77;;
23117;SDS011;11728;50.624;6.014;2023-02-21T08:35:30;26.17;;;16.50;;
23117;SDS011;11728;50.624;6.014;2023-02-21T08:40:30;26.67;;;17.65;;
23117;SDS011;11728;50.624;6.014;2023-02-21T08:45:31;26.58;;;16.63;;
23117;SDS011;11728;50.624;6.014;2023-02-21T08:50:31;25.48;;;16.70;;
23117;SDS011;11728;50.624;6.014;2023-02-21T08:55:32;22.90;;;15.32;;
23117;SDS011;11728;50.624;6.014;2023-02-21T09:00:32;20.53;;;15.13;;
23117;SDS011;11728;50.624;6.014;2023-02-21T09:05:33;19.73;;;15.30;;
23117;SDS011;11728;50.624;6.014;2023-02-21T09:10:33;20.57;;;15.63;;
23117;SDS011;11728;50.624;6.014;2023-02-21T09:15:34;20.63;;;14.52;;
23117;SDS011;11728;50.624;6.014;2023-02-21T09:20:35;20.30;;;14.43;;
23117;SDS011;11728;50.624;6.014;2023-02-21T09:25:40;20.88;;;14.90;;
23117;SDS011;11728;50.624;6.014;2023-02-21T09:30:40;18.53;;;14.33;;
23117;SDS011;11728;50.624;6.014;2023-02-21T09:35:41;18.30;;;14.30;;
23117;SDS011;11728;50.624;6.014;2023-02-21T09:40:43;19.43;;;15.90;;
23117;SDS011;11728;50.624;6.014;2023-02-21T09:45:47;17.35;;;14.55;;
23117;SDS011;11728;50.624;6.014;2023-02-21T09:50:53;19.85;;;15.45;;
23117;SDS011;11728;50.624;6.014;2023-02-21T09:56:04;20.08;;;15.63;;
23117;SDS011;11728;50.624;6.014;2023-02-21T10:01:06;22.97;;;16.53;;
23117;SDS011;11728;50.624;6.014;2023-02-21T10:06:33;23.13;;;17.20;;
23117;SDS011;11728;50.624;6.014;2023-02-21T10:17:18;20.83;;;15.93;;
23117;SDS011;11728;50.624;6.014;2023-02-21T10:22:26;22.17;;;18.75;;
23117;SDS011;11728;50.624;6.014;2023-02-21T10:27:32;22.05;;;17.63;;
23117;SDS011;11728;50.624;6.014;2023-02-21T10:32:33;24.48;;;17.70;;
23117;SDS011;11728;50.624;6.014;2023-02-21T10:37:40;20.95;;;17.15;;
23117;SDS011;11728;50.624;6.014;2023-02-21T10:42:47;22.50;;;18.10;;
23117;SDS011;11728;50.624;6.014;2023-02-21T10:48:00;21.63;;;17.52;;
23117;SDS011;11728;50.624;6.014;2023-02-21T10:53:03;22.58;;;19.08;;
23117;SDS011;11728;50.624;6.014;2023-02-21T10:58:09;25.23;;;18.50;;
23117;SDS011;11728;50.624;6.014;2023-02-21T11:13:41;20.65;;;17.85;;
23117;SDS011;11728;50.624;6.014;2023-02-21T11:18:43;22.15;;;18.30;;
23117;SDS011;11728;50.624;6.014;2023-02-21T11:23:45;21.63;;;17.75;;
23117;SDS011;11728;50.624;6.014;2023-02-21T11:28:52;24.27;;;19.47;;
23117;SDS011;11728;50.624;6.014;2023-02-21T11:33:56;22.75;;;18.42;;
23117;SDS011;11728;50.624;6.014;2023-02-21T11:39:18;22.35;;;17.98;;
23117;SDS011;11728;50.624;6.014;2023-02-21T11:54:32;19.80;;;16.30;;
23117;SDS011;11728;50.624;6.014;2023-02-21T11:59:48;20.55;;;16.50;;
23117;SDS011;11728;50.624;6.014;2023-02-21T12:21:46;8.77;;;6.40;;
23117;SDS011;11728;50.624;6.014;2023-02-21T12:27:29;6.95;;;5.80;;
23117;SDS011;11728;50.624;6.014;2023-02-21T12:48:17;7.70;;;6.20;;
23117;SDS011;11728;50.624;6.014;2023-02-21T12:53:25;9.18;;;6.38;;
23117;SDS011;11728;50.624;6.014;2023-02-21T12:58:34;8.65;;;7.10;;
23117;SDS011;11728;50.624;6.014;2023-02-21T13:14:19;5.97;;;4.85;;
23117;SDS011;11728;50.624;6.014;2023-02-21T13:19:25;7.00;;;5.50;;
23117;SDS011;11728;50.624;6.014;2023-02-21T13:29:51;5.47;;;4.32;;
23117;SDS011;11728;50.624;6.014;2023-02-21T13:35:06;9.05;;;5.95;;
23117;SDS011;11728;50.624;6.014;2023-02-21T13:45:23;8.82;;;6.68;;
23117;SDS011;11728;50.624;6.014;2023-02-21T13:55:38;9.23;;;7.03;;
23117;SDS011;11728;50.624;6.014;2023-02-21T14:10:53;9.80;;;7.22;;
23117;SDS011;11728;50.624;6.014;2023-02-21T14:15:56;8.57;;;6.85;;
23117;SDS011;11728;50.624;6.014;2023-02-21T14:21:09;9.23;;;7.25;;
23117;SDS011;11728;50.624;6.014;2023-02-21T14:31:47;8.55;;;7.07;;
23117;SDS011;11728;50.624;6.014;2023-02-21T14:36:48;9.60;;;7.20;;
23117;SDS011;11728;50.624;6.014;2023-02-21T14:52:45;20.10;;;15.32;;
23117;SDS011;11728;50.624;6.014;2023-02-21T15:03:43;25.97;;;20.27;;
23117;SDS011;11728;50.624;6.014;2023-02-21T15:08:48;31.88;;;21.65;;
23117;SDS011;11728;50.624;6.014;2023-02-21T15:19:28;27.67;;;20.17;;
23117;SDS011;11728;50.624;6.014;2023-02-21T15:24:31;34.83;;;23.10;;
23117;SDS011;11728;50.624;6.014;2023-02-21T15:29:31;30.63;;;21.80;;
23117;SDS011;11728;50.624;6.014;2023-02-21T15:39:37;34.33;;;21.65;;
23117;SDS011;11728;50.624;6.014;2023-02-21T15:44:41;31.05;;;23.55;;
23117;SDS011;11728;50.624;6.014;2023-02-21T16:05:36;37.17;;;25.73;;
23117;SDS011;11728;50.624;6.014;2023-02-21T16:10:37;36.92;;;25.30;;
23117;SDS011;11728;50.624;6.014;2023-02-21T16:15:40;37.38;;;24.45;;
23117;SDS011;11728;50.624;6.014;2023-02-21T16:20:42;40.38;;;27.02;;
23117;SDS011;11728;50.624;6.014;2023-02-21T16:25:57;47.60;;;28.90;;
23117;SDS011;11728;50.624;6.014;2023-02-21T16:30:59;45.28;;;30.42;;
23117;SDS011;11728;50.624;6.014;2023-02-21T16:36:14;47.20;;;28.80;;
23117;SDS011;11728;50.624;6.014;2023-02-21T16:41:19;41.97;;;27.65;;
23117;SDS011;11728;50.624;6.014;2023-02-21T16:46:24;44.95;;;27.73;;
23117;SDS011;11728;50.624;6.014;2023-02-21T16:51:26;42.92;;;27.88;;
23117;SDS011;11728;50.624;6.014;2023-02-21T16:56:32;43.90;;;27.40;;
23117;SDS011;11728;50.624;6.014;2023-02-21T17:01:32;44.97;;;28.60;;
23117;SDS011;11728;50.624;6.014;2023-02-21T17:06:33;51.15;;;33.53;;
23117;SDS011;11728;50.624;6.014;2023-02-21T17:11:33;44.60;;;29.30;;
23117;SDS011;11728;50.624;6.014;2023-02-21T17:16:34;47.93;;;30.53;;
23117;SDS011;11728;50.624;6.014;2023-02-21T17:21:34;57.42;;;36.22;;
23117;SDS011;11728;50.624;6.014;2023-02-21T17:26:34;47.23;;;29.83;;
23117;SDS011;11728;50.624;6.014;2023-02-21T17:31:35;54.53;;;31.43;;
23117;SDS011;11728;50.624;6.014;2023-02-21T17:36:35;45.88;;;28.67;;
23117;SDS011;11728;50.624;6.014;2023-02-21T17:41:36;47.67;;;29.80;;
23117;SDS011;11728;50.624;6.014;2023-02-21T17:46:36;45.80;;;28.13;;
23117;SDS011;11728;50.624;6.014;2023-02-21T17:51:36;47.47;;;28.23;;
23117;SDS011;11728;50.624;6.014;2023-02-21T17:56:37;43.17;;;25.97;;
23117;SDS011;11728;50.624;6.014;2023-02-21T18:01:37;40.87;;;24.17;;
23117;SDS011;11728;50.624;6.014;2023-02-21T18:06:40;41.53;;;24.88;;
23117;SDS011;11728;50.624;6.014;2023-02-21T18:11:46;44.30;;;25.90;;
23117;SDS011;11728;50.624;6.014;2023-02-21T18:16:47;38.75;;;22.92;;
23117;SDS011;11728;50.624;6.014;2023-02-21T18:21:48;40.70;;;23.05;;
23117;SDS011;11728;50.624;6.014;2023-02-21T18:26:48;36.83;;;22.40;;
23117;SDS011;11728;50.624;6.014;2023-02-21T18:31:52;39.50;;;23.95;;
23117;SDS011;11728;50.624;6.014;2023-02-21T18:36:53;40.70;;;23.70;;
23117;SDS011;11728;50.624;6.014;2023-02-21T18:41:53;40.38;;;24.40;;
23117;SDS011;11728;50.624;6.014;2023-02-21T18:46:54;35.90;;;21.23;;
23117;SDS011;11728;50.624;6.014;2023-02-21T18:51:55;40.47;;;22.52;;
23117;SDS011;11728;50.624;6.014;2023-02-21T18:56:55;43.80;;;23.87;;
23117;SDS011;11728;50.624;6.014;2023-02-21T19:01:55;45.13;;;25.33;;
23117;SDS011;11728;50.624;6.014;2023-02-21T19:06:56;41.63;;;24.23;;
23117;SDS011;11728;50.624;6.014;2023-02-21T19:11:56;43.00;;;22.15;;
23117;SDS011;11728;50.624;6.014;2023-02-21T19:16:57;38.30;;;21.53;;
23117;SDS011;11728;50.624;6.014;2023-02-21T19:21:57;38.03;;;21.47;;
23117;SDS011;11728;50.624;6.014;2023-02-21T19:26:59;36.85;;;21.20;;
23117;SDS011;11728;50.624;6.014;2023-02-21T19:31:59;33.95;;;19.10;;
23117;SDS011;11728;50.624;6.014;2023-02-21T19:37:00;32.80;;;18.00;;
23117;SDS011;11728;50.624;6.014;2023-02-21T19:42:00;32.63;;;18.58;;
23117;SDS011;11728;50.624;6.014;2023-02-21T19:47:01;32.58;;;17.83;;
23117;SDS011;11728;50.624;6.014;2023-02-21T19:52:02;38.47;;;18.45;;
23117;SDS011;11728;50.624;6.014;2023-02-21T19:57:02;29.35;;;16.58;;
23117;SDS011;11728;50.624;6.014;2023-02-21T20:02:03;34.05;;;17.80;;
23117;SDS011;11728;50.624;6.014;2023-02-21T20:07:03;29.45;;;16.00;;
23117;SDS011;11728;50.624;6.014;2023-02-21T20:12:04;29.15;;;14.90;;
23117;SDS011;11728;50.624;6.014;2023-02-21T20:17:04;28.58;;;14.65;;
23117;SDS011;11728;50.624;6.014;2023-02-21T20:22:06;27.38;;;14.25;;
23117;SDS011;11728;50.624;6.014;2023-02-21T20:27:06;25.42;;;14.05;;
23117;SDS011;11728;50.624;6.014;2023-02-21T20:32:07;23.98;;;12.95;;
23117;SDS011;11728;50.624;6.014;2023-02-21T20:37:07;20.55;;;11.98;;
23117;SDS011;11728;50.624;6.014;2023-02-21T20:42:10;22.10;;;11.57;;
23117;SDS011;11728;50.624;6.014;2023-02-21T20:47:11;24.63;;;10.40;;
23117;SDS011;11728;50.624;6.014;2023-02-21T20:52:11;21.93;;;9.90;;
23117;SDS011;11728;50.624;6.014;2023-02-21T20:57:13;17.45;;;9.45;;
23117;SDS011;11728;50.624;6.014;2023-02-21T21:02:13;19.70;;;8.90;;
23117;SDS011;11728;50.624;6.014;2023-02-21T21:07:15;16.20;;;8.80;;
23117;SDS011;11728;50.624;6.014;2023-02-21T21:12:22;14.27;;;8.15;;
23117;SDS011;11728;50.624;6.014;2023-02-21T21:17:23;14.45;;;7.82;;
23117;SDS011;11728;50.624;6.014;2023-02-21T21:22:25;17.08;;;8.50;;
23117;SDS011;11728;50.624;6.014;2023-02-21T21:27:29;19.45;;;8.80;;
23117;SDS011;11728;50.624;6.014;2023-02-21T21:32:29;14.93;;;8.18;;
23117;SDS011;11728;50.624;6.014;2023-02-21T21:37:30;15.55;;;7.90;;
23117;SDS011;11728;50.624;6.014;2023-02-21T21:42:30;15.75;;;8.18;;
23117;SDS011;11728;50.624;6.014;2023-02-21T21:47:31;14.25;;;8.20;;
23117;SDS011;11728;50.624;6.014;2023-02-21T21:52:32;17.02;;;7.95;;
23117;SDS011;11728;50.624;6.014;2023-02-21T21:57:33;14.87;;;8.33;;
23117;SDS011;11728;50.624;6.014;2023-02-21T22:02:33;14.82;;;7.20;;
23117;SDS011;11728;50.624;6.014;2023-02-21T22:07:33;16.93;;;7.07;;
23117;SDS011;11728;50.624;6.014;2023-02-21T22:12:33;13.43;;;6.95;;
23117;SDS011;11728;50.624;6.014;2023-02-21T22:17:34;14.67;;;6.70;;
23117;SDS011;11728;50.624;6.014;2023-02-21T22:22:34;16.73;;;6.63;;
23117;SDS011;11728;50.624;6.014;2023-02-21T22:27:34;13.33;;;7.23;;
23117;SDS011;11728;50.624;6.014;2023-02-21T22:32:35;12.80;;;6.70;;
23117;SDS011;11728;50.624;6.014;2023-02-21T22:37:35;13.27;;;7.18;;
23117;SDS011;11728;50.624;6.014;2023-02-21T22:42:36;12.15;;;6.30;;
23117;SDS011;11728;50.624;6.014;2023-02-21T22:47:36;11.70;;;5.90;;
23117;SDS011;11728;50.624;6.014;2023-02-21T22:52:37;10.10;;;5.55;;
23117;SDS011;11728;50.624;6.014;2023-02-21T22:57:38;11.63;;;5.47;;
23117;SDS011;11728;50.624;6.014;2023-02-21T23:02:39;9.90;;;5.70;;
23117;SDS011;11728;50.624;6.014;2023-02-21T23:07:39;10.83;;;5.63;;
23117;SDS011;11728;50.624;6.014;2023-02-21T23:12:39;9.90;;;4.88;;
23117;SDS011;11728;50.624;6.014;2023-02-21T23:17:41;10.05;;;4.60;;
23117;SDS011;11728;50.624;6.014;2023-02-21T23:22:43;8.25;;;4.22;;
23117;SDS011;11728;50.624;6.014;2023-02-21T23:27:48;9.23;;;4.80;;
23117;SDS011;11728;50.624;6.014;2023-02-21T23:32:50;6.55;;;3.80;;
23117;SDS011;11728;50.624;6.014;2023-02-21T23:37:51;8.95;;;4.35;;
23117;SDS011;11728;50.624;6.014;2023-02-21T23:42:53;6.15;;;3.60;;
23117;SDS011;11728;50.624;6.014;2023-02-21T23:47:54;6.35;;;3.50;;
23117;SDS011;11728;50.624;6.014;2023-02-21T23:52:55;7.72;;;3.88;;
23117;SDS011;11728;50.624;6.014;2023-02-21T23:57:58;7.65;;;3.20;;
